Summerville, Illinois
Current Conditions -  °F | °C
As of 10:59 AM on Saturday 20 Dec 2014 (Local Time) from KALN Reporting Station
Overcast Overcast  
Wind Chill: 31°   Ceiling: 1700
Heat Index: 37°   Visibility: 7mi
Dew Point: 30°   Wind: 9mph
Humidity: 75%   Direction: 180°S
Pressure: 30.28"   Gusts: NA
Location:  39.2057°N, 90.1607°W
Report Text: KALN 201659Z 18008KT 7SM BKN017 OVC023 03/M01 A3028
Loading
Personal Weather Stations






























Interactive Weather Map New forecast layout! Learn more

10-Day Weather Forecast

Advertisements
Track Severe Weather on mobile